createdAt,value
2018-03-23T00:00:52.617Z,91.00
2018-03-23T00:03:20.911Z,91.00
2018-03-23T00:05:48.413Z,91.00
2018-03-23T00:08:15.985Z,91.00
2018-03-23T00:10:43.598Z,91.20
2018-03-23T00:13:11.114Z,91.10
2018-03-23T00:15:38.617Z,91.20
2018-03-23T00:18:06.885Z,91.20
2018-03-23T00:20:35.175Z,91.40
2018-03-23T00:23:03.617Z,91.20
2018-03-23T00:25:31.175Z,91.20
2018-03-23T00:27:58.680Z,91.40
2018-03-23T00:30:26.263Z,91.50
2018-03-23T00:32:54.517Z,91.80
2018-03-23T00:35:22.199Z,91.80
2018-03-23T00:37:51.381Z,91.90
2018-03-23T00:40:18.951Z,91.90
2018-03-23T00:42:46.459Z,91.90
2018-03-23T00:45:13.985Z,92.00
2018-03-23T00:47:42.537Z,92.00
2018-03-23T00:50:16.063Z,91.60
2018-03-23T00:52:43.799Z,91.50
2018-03-23T00:55:11.378Z,91.40
2018-03-23T00:57:38.898Z,90.90
2018-03-23T01:00:06.407Z,90.00
2018-03-23T01:02:34.611Z,89.70
2018-03-23T01:05:02.893Z,89.40
2018-03-23T01:07:31.160Z,90.00
2018-03-23T01:09:59.847Z,90.00
2018-03-23T01:12:27.341Z,90.00
2018-03-23T01:14:55.071Z,88.40
2018-03-23T01:17:22.591Z,88.50
2018-03-23T01:19:50.127Z,88.10
2018-03-23T01:22:18.887Z,88.50
2018-03-23T01:24:46.420Z,88.50
2018-03-23T01:27:13.925Z,87.60
2018-03-23T01:29:41.518Z,86.90
2018-03-23T01:32:09.049Z,87.40
2018-03-23T01:34:36.585Z,87.90
2018-03-23T01:37:04.158Z,87.50
2018-03-23T01:39:31.656Z,87.60
2018-03-23T01:41:59.933Z,87.90
2018-03-23T01:44:28.306Z,88.20
2018-03-23T01:46:55.804Z,88.10
2018-03-23T01:49:23.304Z,88.50
2018-03-23T01:51:50.893Z,88.70
2018-03-23T01:54:18.642Z,88.70
2018-03-23T01:56:46.162Z,88.40
2018-03-23T01:59:13.678Z,88.10
2018-03-23T02:01:41.555Z,88.40
2018-03-23T02:04:09.237Z,88.00
2018-03-23T02:06:36.788Z,87.80
2018-03-23T02:09:04.794Z,87.90
2018-03-23T02:11:33.081Z,87.80
2018-03-23T02:14:01.343Z,87.40
2018-03-23T02:16:29.628Z,87.60
2018-03-23T02:18:57.905Z,88.20
2018-03-23T02:21:25.435Z,88.10
2018-03-23T02:23:52.950Z,88.10
2018-03-23T02:26:21.307Z,88.50
2018-03-23T02:28:48.832Z,88.50
2018-03-23T02:31:18.704Z,88.70
2018-03-23T02:33:47.090Z,88.80
2018-03-23T02:36:15.369Z,87.90
2018-03-23T02:38:43.641Z,88.10
2018-03-23T02:41:12.639Z,87.70
2018-03-23T02:43:40.893Z,87.60
2018-03-23T02:46:08.407Z,87.60
2018-03-23T02:48:35.911Z,88.00
2018-03-23T02:51:03.423Z,87.20
2018-03-23T02:53:31.721Z,87.10
2018-03-23T02:55:59.206Z,87.10
2018-03-23T02:58:26.711Z,86.90
2018-03-23T03:00:55.102Z,86.70
2018-03-23T03:03:22.674Z,86.70
2018-03-23T03:05:52.441Z,87.20
2018-03-23T03:08:19.983Z,87.20
2018-03-23T03:10:47.508Z,87.60
2018-03-23T03:13:15.783Z,88.00
2018-03-23T03:15:43.755Z,88.00
2018-03-23T03:18:12.036Z,87.70
2018-03-23T03:20:39.543Z,87.70
2018-03-23T03:23:07.047Z,87.00
2018-03-23T03:25:34.560Z,87.00
2018-03-23T03:28:02.070Z,87.30
2018-03-23T03:30:29.567Z,86.80
2018-03-23T03:32:57.841Z,87.00
2018-03-23T03:35:26.105Z,86.50
2018-03-23T03:37:53.615Z,86.50
2018-03-23T03:40:21.115Z,85.80
2018-03-23T03:42:48.622Z,85.10
2018-03-23T03:45:16.883Z,86.10
2018-03-23T03:47:44.388Z,86.10
2018-03-23T03:50:11.881Z,85.90
2018-03-23T03:52:39.399Z,85.80
2018-03-23T03:55:06.904Z,85.70
2018-03-23T03:57:34.418Z,84.70
2018-03-23T04:00:01.921Z,84.00
2018-03-23T04:02:29.508Z,83.60
2018-03-23T04:04:57.016Z,83.80
2018-03-23T04:07:24.529Z,84.50
2018-03-23T04:09:52.035Z,84.40
2018-03-23T04:12:20.339Z,85.20
2018-03-23T04:14:47.865Z,85.20
2018-03-23T04:17:15.414Z,84.60
2018-03-23T04:19:42.911Z,84.90
2018-03-23T04:22:11.263Z,84.50
2018-03-23T04:24:38.937Z,84.20
2018-03-23T04:27:07.234Z,85.10
2018-03-23T04:29:35.506Z,84.90
2018-03-23T04:32:03.759Z,84.90
2018-03-23T04:34:31.271Z,84.90
2018-03-23T04:36:58.778Z,85.10
2018-03-23T04:39:26.286Z,85.60
2018-03-23T04:41:53.789Z,84.50
2018-03-23T04:44:21.291Z,84.50
2018-03-23T04:46:48.789Z,84.10
2018-03-23T04:49:16.359Z,84.10
2018-03-23T04:51:44.591Z,84.70
2018-03-23T04:54:13.617Z,82.80
2018-03-23T04:56:41.891Z,82.90
2018-03-23T04:59:10.251Z,83.00
2018-03-23T05:01:38.549Z,83.40
2018-03-23T05:04:06.865Z,83.50
2018-03-23T05:06:34.369Z,83.50
2018-03-23T05:09:02.688Z,83.00
2018-03-23T05:11:30.964Z,83.00
2018-03-23T05:13:59.237Z,83.00
2018-03-23T05:16:27.501Z,82.50
2018-03-23T05:18:55.025Z,82.60
2018-03-23T05:21:23.048Z,82.70
2018-03-23T05:23:51.347Z,82.50
2018-03-23T05:26:19.704Z,83.00
2018-03-23T05:28:47.367Z,82.90
2018-03-23T05:31:14.865Z,83.20
2018-03-23T05:33:42.379Z,83.90
2018-03-23T05:36:11.049Z,83.80
2018-03-23T05:38:38.561Z,82.80
2018-03-23T05:41:06.081Z,82.20
2018-03-23T05:43:33.585Z,82.60
2018-03-23T05:46:01.104Z,82.70
2018-03-23T05:48:28.632Z,83.10
2018-03-23T05:50:56.995Z,83.10
2018-03-23T05:53:24.576Z,83.10
2018-03-23T05:55:52.854Z,83.50
2018-03-23T05:58:21.159Z,83.30
2018-03-23T06:00:48.781Z,83.30
2018-03-23T06:03:16.306Z,82.70
2018-03-23T06:05:43.813Z,81.70
2018-03-23T06:08:11.305Z,82.20
2018-03-23T06:10:39.701Z,82.60
2018-03-23T06:13:07.222Z,82.50
2018-03-23T06:15:34.730Z,81.80
2018-03-23T06:18:03.077Z,81.60
2018-03-23T06:20:31.360Z,82.00
2018-03-23T06:22:59.638Z,82.40
2018-03-23T06:25:27.932Z,82.50
2018-03-23T06:27:56.236Z,82.30
2018-03-23T06:30:23.775Z,82.30
2018-03-23T06:32:52.064Z,82.60
2018-03-23T06:35:20.335Z,82.20
2018-03-23T06:37:48.608Z,82.00
2018-03-23T06:40:16.163Z,82.00
2018-03-23T06:42:44.468Z,81.50
2018-03-23T06:45:12.750Z,81.60
2018-03-23T06:47:41.033Z,80.90
2018-03-23T06:50:09.315Z,80.20
2018-03-23T06:52:37.570Z,79.70
2018-03-23T06:55:05.857Z,79.20
2018-03-23T06:57:34.118Z,79.40
2018-03-23T07:00:01.735Z,78.80
2018-03-23T07:02:29.246Z,79.50
2018-03-23T07:04:56.751Z,79.50
2018-03-23T07:07:25.000Z,78.90
2018-03-23T07:09:52.521Z,78.90
2018-03-23T07:12:20.001Z,79.00
2018-03-23T07:14:47.640Z,79.20
2018-03-23T07:17:15.163Z,79.00
2018-03-23T07:19:43.567Z,78.80
2018-03-23T07:22:11.851Z,78.50
2018-03-23T07:24:40.235Z,79.00
2018-03-23T07:27:07.755Z,79.00
2018-03-23T07:29:35.273Z,79.00
2018-03-23T07:32:02.755Z,78.90
2018-03-23T07:34:30.291Z,79.10
2018-03-23T07:36:57.876Z,78.40
2018-03-23T07:39:25.401Z,78.10
2018-03-23T07:41:53.685Z,75.90
2018-03-23T07:44:22.018Z,75.20
2018-03-23T07:46:49.646Z,75.00
2018-03-23T07:49:18.351Z,74.90
2018-03-23T07:51:45.846Z,74.90
2018-03-23T07:54:13.358Z,75.50
2018-03-23T07:56:41.670Z,74.40
2018-03-23T07:59:09.180Z,74.40
2018-03-23T08:01:36.736Z,73.70
2018-03-23T08:04:04.240Z,74.80
2018-03-23T08:06:31.795Z,74.50
2018-03-23T08:08:59.295Z,74.90
2018-03-23T08:11:26.818Z,74.70
2018-03-23T08:13:55.113Z,74.20
2018-03-23T08:16:22.615Z,74.20
2018-03-23T08:18:50.149Z,73.90
2018-03-23T08:21:17.656Z,72.90
2018-03-23T08:23:45.297Z,73.50
2018-03-23T08:26:12.834Z,72.50
2018-03-23T08:28:40.343Z,72.50
2018-03-23T08:31:07.917Z,73.50
2018-03-23T08:33:35.413Z,73.70
2018-03-23T08:36:03.770Z,73.80
2018-03-23T08:38:31.275Z,73.20
2018-03-23T08:40:58.779Z,73.20
2018-03-23T08:43:26.677Z,72.80
2018-03-23T08:45:54.968Z,73.40
2018-03-23T08:48:23.238Z,71.70
2018-03-23T08:50:50.761Z,71.60
2018-03-23T08:53:18.409Z,72.30
2018-03-23T08:55:45.954Z,72.20
2018-03-23T08:58:13.449Z,71.20
2018-03-23T09:00:40.990Z,71.40
2018-03-23T09:03:08.601Z,70.80
2018-03-23T09:05:36.125Z,71.20
2018-03-23T09:08:03.637Z,69.50
2018-03-23T09:10:31.935Z,69.70
2018-03-23T09:12:59.443Z,69.80
2018-03-23T09:15:27.838Z,70.10
2018-03-23T09:17:55.959Z,70.10
2018-03-23T09:20:23.585Z,70.20
2018-03-23T09:22:51.089Z,70.10
2018-03-23T09:25:19.368Z,70.60
2018-03-23T09:27:47.616Z,71.40
2018-03-23T09:30:15.259Z,71.30
2018-03-23T09:32:42.811Z,71.70
2018-03-23T09:35:10.307Z,71.80
2018-03-23T09:37:37.797Z,71.80
2018-03-23T09:40:05.313Z,72.00
2018-03-23T09:42:32.991Z,72.20
2018-03-23T09:45:00.521Z,71.90
2018-03-23T09:47:28.024Z,72.70
2018-03-23T09:49:55.646Z,72.50
2018-03-23T09:52:23.189Z,72.50
2018-03-23T09:54:51.519Z,72.10
2018-03-23T09:57:19.029Z,72.00
2018-03-23T09:59:47.935Z,72.40
2018-03-23T10:02:16.537Z,72.20
2018-03-23T10:04:44.219Z,72.20
2018-03-23T10:07:11.764Z,73.00
2018-03-23T10:09:40.361Z,74.10
2018-03-23T10:12:07.861Z,74.10
2018-03-23T10:14:35.352Z,74.00
2018-03-23T10:17:02.855Z,73.90
2018-03-23T10:19:30.431Z,75.00
2018-03-23T10:21:58.661Z,74.20
2018-03-23T10:24:26.173Z,74.30
2018-03-23T10:26:53.718Z,74.60
2018-03-23T10:29:21.257Z,74.40
2018-03-23T10:31:48.754Z,75.10
2018-03-23T10:34:16.281Z,75.30
2018-03-23T10:36:44.651Z,74.80
2018-03-23T10:39:12.206Z,74.80
2018-03-23T10:41:39.723Z,75.50
2018-03-23T10:44:07.286Z,74.30
2018-03-23T10:46:34.784Z,73.00
2018-03-23T10:49:02.373Z,73.00
2018-03-23T10:51:29.879Z,72.30
2018-03-23T10:53:57.418Z,72.40
2018-03-23T10:56:25.003Z,72.80
2018-03-23T11:01:31.393Z,73.20
2018-03-23T11:03:58.915Z,73.50
2018-03-23T11:06:26.415Z,73.50
2018-03-23T11:08:53.967Z,73.50
2018-03-23T11:11:22.263Z,73.80
2018-03-23T11:13:49.888Z,73.60
2018-03-23T11:16:17.459Z,73.40
2018-03-23T11:18:45.064Z,73.50
2018-03-23T11:21:12.571Z,74.00
2018-03-23T11:23:40.305Z,73.30
2018-03-23T11:26:07.803Z,74.00
2018-03-23T11:28:35.821Z,74.70
2018-03-23T11:31:04.091Z,74.00
2018-03-23T11:33:32.428Z,73.90
2018-03-23T11:35:59.931Z,73.80
2018-03-23T11:38:28.217Z,74.00
2018-03-23T11:40:56.497Z,73.80
2018-03-23T11:43:24.778Z,73.70
2018-03-23T11:45:53.059Z,73.40
2018-03-23T11:48:21.335Z,73.10
2018-03-23T11:50:49.295Z,73.10
2018-03-23T11:53:16.759Z,73.00
2018-03-23T11:55:45.075Z,73.00
2018-03-23T11:58:12.629Z,72.90
2018-03-23T12:00:40.902Z,72.30
2018-03-23T12:03:09.179Z,72.60
2018-03-23T12:05:38.926Z,72.50
2018-03-23T12:08:06.449Z,72.50
2018-03-23T12:10:34.715Z,72.40
2018-03-23T12:13:02.215Z,72.10
2018-03-23T12:15:30.423Z,71.50
2018-03-23T12:17:57.905Z,72.00
2018-03-23T12:20:25.414Z,72.50
2018-03-23T12:22:53.680Z,71.50
2018-03-23T12:25:22.474Z,71.50
2018-03-23T12:27:51.079Z,71.60
2018-03-23T12:30:19.468Z,71.60
2018-03-23T12:32:47.315Z,71.60
2018-03-23T12:35:15.721Z,69.70
2018-03-23T12:37:43.229Z,69.60
2018-03-23T12:40:10.832Z,69.30
2018-03-23T12:42:38.318Z,69.50
2018-03-23T12:45:05.851Z,70.10
2018-03-23T12:47:33.349Z,69.70
2018-03-23T12:50:00.879Z,69.80
2018-03-23T12:52:29.153Z,69.20
2018-03-23T12:54:56.711Z,69.20
2018-03-23T12:57:24.241Z,67.40
2018-03-23T12:59:52.701Z,67.40
2018-03-23T13:02:20.195Z,66.90
2018-03-23T13:04:47.719Z,67.00
2018-03-23T13:07:16.013Z,69.20
2018-03-23T13:09:43.529Z,69.10
2018-03-23T13:12:12.548Z,69.60
2018-03-23T13:14:40.070Z,69.60
2018-03-23T13:17:07.587Z,68.70
2018-03-23T13:19:35.863Z,67.70
2018-03-23T13:22:04.111Z,67.50
2018-03-23T13:24:32.200Z,67.50
2018-03-23T13:27:01.018Z,67.20
2018-03-23T13:29:29.344Z,67.50
2018-03-23T13:31:56.888Z,67.50
2018-03-23T13:34:24.386Z,67.90
2018-03-23T13:36:51.886Z,68.30
2018-03-23T13:39:20.211Z,68.00
2018-03-23T13:41:47.703Z,68.00
2018-03-23T13:44:15.663Z,67.80
2018-03-23T13:46:43.152Z,67.90
2018-03-23T13:49:10.669Z,67.10
2018-03-23T13:51:38.178Z,67.30
2018-03-23T13:54:05.812Z,67.90
2018-03-23T13:56:33.356Z,68.40
2018-03-23T13:59:06.617Z,69.30
2018-03-23T14:01:40.975Z,69.40
2018-03-23T14:04:08.489Z,69.40
2018-03-23T14:06:36.002Z,70.10
2018-03-23T14:09:03.517Z,69.10
2018-03-23T14:11:31.831Z,68.00
2018-03-23T14:13:59.376Z,67.90
2018-03-23T14:16:26.925Z,68.20
2018-03-23T14:18:55.209Z,69.10
2018-03-23T14:21:23.559Z,68.90
2018-03-23T14:23:51.149Z,68.70
2018-03-23T14:26:18.717Z,68.60
2018-03-23T14:28:46.295Z,70.20
2018-03-23T14:31:13.781Z,69.50
2018-03-23T14:33:41.283Z,69.30
2018-03-23T14:36:08.851Z,69.90
2018-03-23T14:38:36.371Z,69.30
2018-03-23T14:41:03.945Z,69.40
2018-03-23T14:43:31.480Z,70.00
2018-03-23T14:45:59.819Z,69.50
2018-03-23T14:48:27.463Z,69.50
2018-03-23T14:50:55.177Z,69.20
2018-03-23T14:53:22.717Z,69.10
2018-03-23T14:55:50.229Z,69.20
2018-03-23T14:58:18.517Z,69.20
2018-03-23T15:00:46.066Z,69.20
2018-03-23T15:03:14.375Z,69.30
2018-03-23T15:05:41.877Z,69.20
2018-03-23T15:08:09.395Z,69.00
2018-03-23T15:10:36.946Z,69.00
2018-03-23T15:13:04.477Z,69.80
2018-03-23T15:15:31.988Z,70.50
2018-03-23T15:17:59.506Z,71.00
2018-03-23T15:20:27.778Z,71.80
2018-03-23T15:22:55.351Z,71.20
2018-03-23T15:25:22.907Z,71.50
2018-03-23T15:27:50.550Z,71.50
2018-03-23T15:30:18.089Z,71.50
2018-03-23T15:32:45.815Z,71.80
2018-03-23T15:35:14.193Z,70.80
2018-03-23T15:37:41.704Z,71.50
2018-03-23T15:40:09.323Z,72.00
2018-03-23T15:42:36.869Z,71.80
2018-03-23T15:45:04.387Z,71.60
2018-03-23T15:47:31.934Z,71.60
2018-03-23T15:50:01.153Z,71.90
2018-03-23T15:52:29.280Z,71.90
2018-03-23T15:54:56.769Z,72.10
2018-03-23T15:57:24.367Z,72.40
2018-03-23T15:59:51.883Z,73.00
2018-03-23T16:02:19.408Z,72.50
2018-03-23T16:04:46.937Z,72.50
2018-03-23T16:07:15.389Z,73.60
2018-03-23T16:09:42.921Z,73.60
2018-03-23T16:12:10.504Z,74.00
2018-03-23T16:14:38.182Z,74.00
2018-03-23T16:17:05.727Z,74.20
2018-03-23T16:19:33.372Z,74.50
2018-03-23T16:22:00.867Z,74.70
2018-03-23T16:24:28.378Z,74.50
2018-03-23T16:26:56.681Z,74.40
2018-03-23T16:29:24.204Z,74.40
2018-03-23T16:31:52.484Z,75.20
2018-03-23T16:34:20.085Z,75.00
2018-03-23T16:36:47.607Z,75.50
2018-03-23T16:39:15.167Z,75.70
2018-03-23T16:41:42.783Z,76.00
2018-03-23T16:44:10.398Z,76.20
2018-03-23T16:46:37.919Z,75.70
2018-03-23T16:49:05.457Z,75.00
2018-03-23T16:51:34.073Z,74.40
2018-03-23T16:54:02.575Z,75.00
2018-03-23T16:56:30.116Z,74.20
2018-03-23T16:58:59.508Z,74.90
2018-03-23T17:01:27.164Z,75.10
2018-03-23T17:03:55.487Z,75.30
2018-03-23T17:06:23.755Z,75.50
2018-03-23T17:08:51.289Z,75.50
2018-03-23T17:11:19.563Z,75.20
2018-03-23T17:13:48.037Z,75.40
2018-03-23T17:16:16.322Z,75.80
2018-03-23T17:18:44.605Z,76.30
2018-03-23T17:21:12.151Z,75.60
2018-03-23T17:23:39.646Z,76.00
2018-03-23T17:26:07.933Z,76.40
2018-03-23T17:28:35.805Z,76.30
2018-03-23T17:31:03.323Z,76.60
2018-03-23T17:33:30.823Z,76.80
2018-03-23T17:35:59.105Z,76.70
2018-03-23T17:38:27.395Z,76.80
2018-03-23T17:40:54.903Z,76.80
2018-03-23T17:43:22.440Z,76.90
2018-03-23T17:45:50.000Z,77.10
2018-03-23T17:48:17.586Z,77.20
2018-03-23T17:50:45.099Z,77.40
2018-03-23T17:53:12.675Z,77.60
2018-03-23T17:55:40.187Z,77.80
2018-03-23T17:58:07.708Z,77.70
2018-03-23T18:00:36.026Z,77.80
2018-03-23T18:03:03.540Z,77.80
2018-03-23T18:05:33.424Z,78.30
2018-03-23T18:08:00.958Z,78.30
2018-03-23T18:10:28.474Z,78.20
2018-03-23T18:12:55.980Z,78.20
2018-03-23T18:15:23.533Z,78.40
2018-03-23T18:17:51.018Z,78.60
2018-03-23T18:20:21.526Z,78.60
2018-03-23T18:22:51.586Z,78.10
2018-03-23T18:25:19.421Z,78.10
2018-03-23T18:27:47.032Z,78.10
2018-03-23T18:30:15.633Z,78.00
2018-03-23T18:32:44.345Z,77.90
2018-03-23T18:35:11.882Z,77.80
2018-03-23T18:37:39.381Z,76.70
2018-03-23T18:40:06.906Z,76.90
2018-03-23T18:42:34.409Z,77.10
2018-03-23T18:45:02.706Z,77.30
2018-03-23T18:47:30.225Z,77.30
2018-03-23T18:49:58.514Z,77.80
2018-03-23T18:52:26.835Z,77.70
2018-03-23T18:54:54.467Z,77.70
2018-03-23T18:57:23.138Z,77.80
2018-03-23T18:59:51.521Z,78.30
2018-03-23T19:02:19.041Z,77.90
2018-03-23T19:04:46.739Z,78.00
2018-03-23T19:07:14.405Z,78.00
2018-03-23T19:09:41.940Z,77.60
2018-03-23T19:12:09.514Z,77.90
2018-03-23T19:14:38.216Z,78.20
2018-03-23T19:17:05.731Z,78.30
2018-03-23T19:19:33.989Z,78.80
2018-03-23T19:22:01.579Z,78.70
2018-03-23T19:24:29.217Z,78.80
2018-03-23T19:26:58.265Z,78.70
2018-03-23T19:29:26.380Z,78.70
2018-03-23T19:31:53.913Z,78.60
2018-03-23T19:34:21.518Z,78.50
2018-03-23T19:36:49.076Z,78.60
2018-03-23T19:39:16.603Z,78.50
2018-03-23T19:41:44.173Z,78.90
2018-03-23T19:44:11.791Z,78.70
2018-03-23T19:46:40.494Z,78.60
2018-03-23T19:49:08.498Z,78.50
2018-03-23T19:51:36.032Z,78.30
2018-03-23T19:54:03.564Z,78.60
2018-03-23T19:56:31.190Z,78.00
2018-03-23T19:58:59.465Z,77.90
2018-03-23T20:01:27.022Z,77.80
2018-03-23T20:03:54.743Z,78.00
2018-03-23T20:06:22.270Z,78.10
2018-03-23T20:08:50.302Z,78.20
2018-03-23T20:11:18.636Z,78.50
2018-03-23T20:14:04.922Z,78.40
2018-03-23T20:16:32.464Z,78.40
2018-03-23T20:18:59.997Z,78.50
2018-03-23T20:21:27.918Z,78.50
2018-03-23T20:26:55.946Z,78.20
2018-03-23T20:29:24.210Z,78.40
2018-03-23T20:31:57.511Z,78.40
2018-03-23T20:34:25.006Z,78.40
2018-03-23T20:36:52.622Z,78.20
2018-03-23T20:39:20.250Z,78.20
2018-03-23T20:41:49.461Z,78.40
2018-03-23T20:44:16.964Z,78.40
2018-03-23T20:46:45.235Z,78.40
2018-03-23T20:49:14.640Z,78.30
2018-03-23T20:51:42.175Z,78.30
2018-03-23T20:54:10.158Z,78.70
2018-03-23T20:56:37.925Z,78.50
2018-03-23T20:59:05.486Z,78.70
2018-03-23T21:01:33.179Z,78.50
2018-03-23T21:04:00.699Z,78.90
2018-03-23T21:06:28.197Z,78.90
2018-03-23T21:08:55.840Z,79.00
2018-03-23T21:11:23.444Z,79.30
2018-03-23T21:13:51.799Z,78.70
2018-03-23T21:16:19.422Z,78.70
2018-03-23T21:18:47.699Z,78.70
2018-03-23T21:21:15.972Z,78.90
2018-03-23T21:23:44.283Z,78.70
2018-03-23T21:26:11.801Z,78.70
2018-03-23T21:28:39.322Z,78.60
2018-03-23T21:31:06.822Z,78.90
2018-03-23T21:33:34.551Z,78.90
2018-03-23T21:36:02.093Z,79.00
2018-03-23T21:38:30.406Z,78.60
2018-03-23T21:40:57.905Z,78.50
2018-03-23T21:43:25.400Z,78.40
2018-03-23T21:45:55.417Z,78.40
2018-03-23T21:48:23.000Z,78.30
2018-03-23T21:50:50.487Z,78.20
2018-03-23T21:53:17.979Z,78.20
2018-03-23T21:55:45.492Z,77.50
2018-03-23T21:58:13.203Z,77.50
2018-03-23T22:00:40.719Z,77.70
2018-03-23T22:03:08.332Z,77.20
2018-03-23T22:05:35.828Z,76.90
2018-03-23T22:08:04.110Z,77.00
2018-03-23T22:10:32.373Z,76.60
2018-03-23T22:13:00.661Z,76.80
2018-03-23T22:15:28.962Z,76.70
2018-03-23T22:17:56.481Z,76.60
2018-03-23T22:20:23.977Z,76.40
2018-03-23T22:22:52.268Z,76.10
2018-03-23T22:25:19.780Z,76.10
2018-03-23T22:27:47.708Z,75.80
2018-03-23T22:30:16.124Z,75.70
2018-03-23T22:32:43.714Z,75.70
2018-03-23T22:35:11.856Z,75.70
2018-03-23T22:37:39.357Z,75.20
2018-03-23T22:40:07.135Z,75.20
2018-03-23T22:42:35.507Z,75.00
2018-03-23T22:45:03.061Z,74.70
2018-03-23T22:47:30.554Z,74.40
2018-03-23T22:49:59.369Z,73.60
2018-03-23T22:52:26.878Z,74.80
2018-03-23T22:54:54.419Z,74.30
2018-03-23T22:57:22.011Z,74.50
2018-03-23T22:59:49.547Z,74.50
2018-03-23T23:02:17.082Z,74.30
2018-03-23T23:04:45.402Z,74.40
2018-03-23T23:07:14.110Z,74.30
2018-03-23T23:09:41.616Z,74.40
2018-03-23T23:12:09.137Z,74.40
2018-03-23T23:14:36.649Z,74.50
2018-03-23T23:17:04.167Z,74.90
2018-03-23T23:19:31.688Z,74.50
2018-03-23T23:21:59.804Z,74.30
2018-03-23T23:24:27.295Z,74.60
2018-03-23T23:26:54.817Z,74.40
2018-03-23T23:29:22.330Z,74.50
2018-03-23T23:31:50.588Z,74.40
2018-03-23T23:34:18.075Z,74.40
2018-03-23T23:36:46.348Z,74.40
2018-03-23T23:39:14.621Z,74.60
2018-03-23T23:41:42.942Z,75.20
2018-03-23T23:44:10.447Z,74.50
2018-03-23T23:46:37.957Z,74.40
2018-03-23T23:49:06.505Z,74.30
2018-03-23T23:51:34.783Z,74.40
2018-03-23T23:54:03.272Z,74.60
2018-03-23T23:56:30.781Z,74.50
2018-03-23T23:58:58.283Z,74.20
